sensor_id;sensor_type;location;lat;lon;timestamp;pressure;altitude;pressure_sealevel;temperature;humidity
57056;BME280;42945;51.718;5.324;2022-08-21T00:03:46;101527.44;;;13.22;100.00
57056;BME280;42945;51.718;5.324;2022-08-21T00:09:34;101382.97;;;12.41;100.00
57056;BME280;42945;51.718;5.324;2022-08-21T00:15:25;101413.19;;;13.17;100.00
57056;BME280;42945;51.718;5.324;2022-08-21T00:21:15;101482.69;;;13.12;100.00
57056;BME280;42945;51.718;5.324;2022-08-21T00:27:03;101447.59;;;13.06;100.00
57056;BME280;42945;51.718;5.324;2022-08-21T00:32:53;101455.19;;;12.97;100.00
57056;BME280;42945;51.718;5.324;2022-08-21T00:38:42;101511.50;;;13.06;100.00
57056;BME280;42945;51.718;5.324;2022-08-21T00:44:30;101047.88;;;12.69;100.00
57056;BME280;42945;51.718;5.324;2022-08-21T00:50:19;101464.81;;;12.84;100.00
57056;BME280;42945;51.718;5.324;2022-08-21T00:56:09;101460.53;;;12.82;100.00
57056;BME280;42945;51.718;5.324;2022-08-21T01:05:52;101500.97;;;12.88;100.00
57056;BME280;42945;51.718;5.324;2022-08-21T01:11:41;101456.56;;;12.73;100.00
57056;BME280;42945;51.718;5.324;2022-08-21T01:17:31;101346.09;;;12.19;100.00
57056;BME280;42945;51.718;5.324;2022-08-21T01:23:20;101469.97;;;12.71;100.00
57056;BME280;42945;51.718;5.324;2022-08-21T01:35:38;101356.75;;;11.86;100.00
57056;BME280;42945;51.718;5.324;2022-08-21T01:41:27;101358.16;;;12.09;100.00
57056;BME280;42945;51.718;5.324;2022-08-21T01:47:16;101546.28;;;13.34;100.00
57056;BME280;42945;51.718;5.324;2022-08-21T01:53:06;101334.66;;;12.01;100.00
57056;BME280;42945;51.718;5.324;2022-08-21T01:58:53;101379.59;;;11.90;100.00
57056;BME280;42945;51.718;5.324;2022-08-21T02:08:44;101532.84;;;13.20;100.00
57056;BME280;42945;51.718;5.324;2022-08-21T02:14:33;101483.53;;;12.51;100.00
57056;BME280;42945;51.718;5.324;2022-08-21T02:20:30;101455.47;;;12.29;100.00
57056;BME280;42945;51.718;5.324;2022-08-21T02:26:18;101435.81;;;12.48;100.00
57056;BME280;42945;51.718;5.324;2022-08-21T02:32:06;101461.72;;;12.60;100.00
57056;BME280;42945;51.718;5.324;2022-08-21T02:37:57;101453.06;;;12.56;100.00
57056;BME280;42945;51.718;5.324;2022-08-21T02:43:46;101173.72;;;11.00;100.00
57056;BME280;42945;51.718;5.324;2022-08-21T02:49:34;101464.66;;;12.39;100.00
57056;BME280;42945;51.718;5.324;2022-08-21T02:55:23;101413.69;;;12.31;100.00
57056;BME280;42945;51.718;5.324;2022-08-21T03:01:14;101507.25;;;12.87;100.00
57056;BME280;42945;51.718;5.324;2022-08-21T03:11:04;101431.06;;;12.21;100.00
57056;BME280;42945;51.718;5.324;2022-08-21T03:16:52;101418.31;;;12.12;100.00
57056;BME280;42945;51.718;5.324;2022-08-21T03:22:41;101395.31;;;12.11;100.00
57056;BME280;42945;51.718;5.324;2022-08-21T03:28:29;101613.72;;;13.67;100.00
57056;BME280;42945;51.718;5.324;2022-08-21T03:34:17;101451.56;;;12.19;100.00
57056;BME280;42945;51.718;5.324;2022-08-21T03:40:08;101389.91;;;12.12;100.00
57056;BME280;42945;51.718;5.324;2022-08-21T03:45:56;101261.59;;;11.12;100.00
57056;BME280;42945;51.718;5.324;2022-08-21T03:51:44;101238.19;;;11.02;100.00
57056;BME280;42945;51.718;5.324;2022-08-21T03:57:31;101387.28;;;11.79;100.00
57056;BME280;42945;51.718;5.324;2022-08-21T04:03:20;101181.81;;;10.29;100.00
57056;BME280;42945;51.718;5.324;2022-08-21T04:13:03;101399.25;;;11.70;100.00
57056;BME280;42945;51.718;5.324;2022-08-21T04:18:51;101391.34;;;11.69;100.00
57056;BME280;42945;51.718;5.324;2022-08-21T04:24:38;101428.91;;;11.78;100.00
57056;BME280;42945;51.718;5.324;2022-08-21T04:30:26;101283.53;;;11.15;100.00
57056;BME280;42945;51.718;5.324;2022-08-21T04:36:14;101334.88;;;11.14;100.00
57056;BME280;42945;51.718;5.324;2022-08-21T04:42:02;101375.31;;;11.70;100.00
57056;BME280;42945;51.718;5.324;2022-08-21T04:47:54;101372.34;;;11.76;100.00
57056;BME280;42945;51.718;5.324;2022-08-21T04:53:49;101429.84;;;11.95;100.00
57056;BME280;42945;51.718;5.324;2022-08-21T04:59:47;101421.19;;;11.91;100.00
57056;BME280;42945;51.718;5.324;2022-08-21T05:05:36;101330.97;;;11.39;100.00
57056;BME280;42945;51.718;5.324;2022-08-21T05:15:26;101442.00;;;12.32;100.00
57056;BME280;42945;51.718;5.324;2022-08-21T05:21:14;101430.75;;;12.43;100.00
57056;BME280;42945;51.718;5.324;2022-08-21T05:27:02;101324.72;;;11.89;100.00
57056;BME280;42945;51.718;5.324;2022-08-21T05:32:59;101421.91;;;12.74;100.00
57056;BME280;42945;51.718;5.324;2022-08-21T05:39:13;101349.84;;;12.31;100.00
57056;BME280;42945;51.718;5.324;2022-08-21T05:45:00;101468.03;;;13.05;100.00
57056;BME280;42945;51.718;5.324;2022-08-21T05:50:50;101415.09;;;13.15;98.14
57056;BME280;42945;51.718;5.324;2022-08-21T05:56:38;101352.69;;;12.74;98.18
57056;BME280;42945;51.718;5.324;2022-08-21T06:02:27;101400.81;;;13.61;96.63
57056;BME280;42945;51.718;5.324;2022-08-21T06:08:17;101307.72;;;13.14;96.45
57056;BME280;42945;51.718;5.324;2022-08-21T06:18:07;101489.88;;;14.01;94.87
57056;BME280;42945;51.718;5.324;2022-08-21T06:23:56;101422.72;;;14.23;93.88
57056;BME280;42945;51.718;5.324;2022-08-21T06:29:44;101536.56;;;15.07;93.66
57056;BME280;42945;51.718;5.324;2022-08-21T06:35:33;101418.28;;;14.51;92.98
57056;BME280;42945;51.718;5.324;2022-08-21T06:41:21;101508.84;;;14.95;92.64
57056;BME280;42945;51.718;5.324;2022-08-21T06:47:10;101307.13;;;14.50;92.05
57056;BME280;42945;51.718;5.324;2022-08-21T06:53:02;101595.97;;;15.92;90.83
57056;BME280;42945;51.718;5.324;2022-08-21T06:58:51;101354.97;;;14.80;91.29
57056;BME280;42945;51.718;5.324;2022-08-21T07:04:40;101320.94;;;15.09;89.19
57056;BME280;42945;51.718;5.324;2022-08-21T07:10:28;101336.00;;;15.10;89.78
57056;BME280;42945;51.718;5.324;2022-08-21T07:20:13;101425.09;;;16.38;87.86
57056;BME280;42945;51.718;5.324;2022-08-21T07:26:01;101309.06;;;15.39;86.79
57056;BME280;42945;51.718;5.324;2022-08-21T07:31:49;101406.25;;;16.39;88.54
57056;BME280;42945;51.718;5.324;2022-08-21T07:37:37;101445.13;;;16.45;88.30
57056;BME280;42945;51.718;5.324;2022-08-21T07:43:24;101407.09;;;17.01;86.81
57056;BME280;42945;51.718;5.324;2022-08-21T07:49:13;101452.16;;;17.07;86.50
57056;BME280;42945;51.718;5.324;2022-08-21T07:55:22;101434.81;;;17.24;84.95
57056;BME280;42945;51.718;5.324;2022-08-21T08:01:11;101381.81;;;16.92;84.18
57056;BME280;42945;51.718;5.324;2022-08-21T08:07:00;101442.38;;;18.10;82.75
57056;BME280;42945;51.718;5.324;2022-08-21T08:12:48;101335.88;;;17.21;81.36
57056;BME280;42945;51.718;5.324;2022-08-21T08:22:41;101399.81;;;18.17;82.04
57056;BME280;42945;51.718;5.324;2022-08-21T08:28:31;101450.81;;;18.17;81.62
57056;BME280;42945;51.718;5.324;2022-08-21T08:34:18;101407.94;;;18.38;80.20
57056;BME280;42945;51.718;5.324;2022-08-21T08:40:15;101306.63;;;17.97;77.69
57056;BME280;42945;51.718;5.324;2022-08-21T08:46:12;101388.47;;;19.22;78.84
57056;BME280;42945;51.718;5.324;2022-08-21T08:52:11;101442.41;;;19.09;77.62
57056;BME280;42945;51.718;5.324;2022-08-21T08:58:04;101325.47;;;18.61;77.01
57056;BME280;42945;51.718;5.324;2022-08-21T09:03:52;101296.22;;;19.00;75.71
57056;BME280;42945;51.718;5.324;2022-08-21T09:10:05;101188.84;;;18.78;71.73
57056;BME280;42945;51.718;5.324;2022-08-21T09:26:17;101376.28;;;20.10;72.94
57056;BME280;42945;51.718;5.324;2022-08-21T09:43:52;101401.88;;;20.45;70.14
57056;BME280;42945;51.718;5.324;2022-08-21T09:49:42;101538.41;;;21.45;66.97
57056;BME280;42945;51.718;5.324;2022-08-21T09:55:46;101384.09;;;20.83;66.45
57056;BME280;42945;51.718;5.324;2022-08-21T10:01:54;101391.41;;;21.49;65.22
57056;BME280;42945;51.718;5.324;2022-08-21T10:07:42;101443.69;;;22.33;64.12
57056;BME280;42945;51.718;5.324;2022-08-21T10:13:37;101402.63;;;22.19;60.26
57056;BME280;42945;51.718;5.324;2022-08-21T10:26:18;101253.59;;;21.78;59.65
57056;BME280;42945;51.718;5.324;2022-08-21T10:38:46;101380.16;;;22.19;60.10
57056;BME280;42945;51.718;5.324;2022-08-21T10:45:14;101431.75;;;22.35;56.85
57056;BME280;42945;51.718;5.324;2022-08-21T10:56:58;101411.31;;;22.69;54.21
57056;BME280;42945;51.718;5.324;2022-08-21T11:03:02;101318.25;;;22.35;55.88
57056;BME280;42945;51.718;5.324;2022-08-21T11:08:55;101397.22;;;22.83;53.88
57056;BME280;42945;51.718;5.324;2022-08-21T11:14:52;101383.63;;;22.39;54.93
57056;BME280;42945;51.718;5.324;2022-08-21T11:26:52;101263.22;;;21.91;100.00
57056;BME280;42945;51.718;5.324;2022-08-21T11:32:42;101388.66;;;22.34;55.06
57056;BME280;42945;51.718;5.324;2022-08-21T11:38:42;101357.25;;;22.51;55.17
57056;BME280;42945;51.718;5.324;2022-08-21T11:44:36;101379.31;;;22.82;55.13
57056;BME280;42945;51.718;5.324;2022-08-21T11:50:31;101302.50;;;22.21;53.42
57056;BME280;42945;51.718;5.324;2022-08-21T11:56:31;101723.78;;;23.18;51.42
57056;BME280;42945;51.718;5.324;2022-08-21T12:02:24;101373.94;;;23.52;51.24
57056;BME280;42945;51.718;5.324;2022-08-21T12:08:29;101354.75;;;23.46;48.19
57056;BME280;42945;51.718;5.324;2022-08-21T12:14:18;101360.34;;;24.05;48.46
57056;BME280;42945;51.718;5.324;2022-08-21T12:32:04;101381.47;;;24.01;49.74
57056;BME280;42945;51.718;5.324;2022-08-21T12:38:32;101230.97;;;23.48;50.42
57056;BME280;42945;51.718;5.324;2022-08-21T12:56:29;101384.97;;;24.28;46.91
57056;BME280;42945;51.718;5.324;2022-08-21T13:02:22;101368.13;;;24.75;46.29
57056;BME280;42945;51.718;5.324;2022-08-21T13:08:13;101359.97;;;24.75;44.70
57056;BME280;42945;51.718;5.324;2022-08-21T13:14:05;101389.22;;;23.62;47.14
57056;BME280;42945;51.718;5.324;2022-08-21T13:20:31;101153.59;;;22.42;46.17
57056;BME280;42945;51.718;5.324;2022-08-21T13:26:21;101328.91;;;23.17;47.34
57056;BME280;42945;51.718;5.324;2022-08-21T13:32:21;101231.28;;;23.45;44.36
57056;BME280;42945;51.718;5.324;2022-08-21T13:38:09;101356.69;;;23.27;46.42
57056;BME280;42945;51.718;5.324;2022-08-21T13:44:12;101489.22;;;24.42;44.71
57056;BME280;42945;51.718;5.324;2022-08-21T13:50:02;101253.22;;;22.81;46.36
57056;BME280;42945;51.718;5.324;2022-08-21T13:55:51;101345.91;;;23.35;46.46
57056;BME280;42945;51.718;5.324;2022-08-21T14:01:50;101385.66;;;23.61;48.74
57056;BME280;42945;51.718;5.324;2022-08-21T14:07:43;101365.63;;;24.14;48.13
57056;BME280;42945;51.718;5.324;2022-08-21T14:19:40;101372.00;;;24.05;47.04
57056;BME280;42945;51.718;5.324;2022-08-21T14:25:37;101148.13;;;22.60;45.92
57056;BME280;42945;51.718;5.324;2022-08-21T14:31:29;101371.50;;;24.52;45.75
57056;BME280;42945;51.718;5.324;2022-08-21T14:37:20;101344.69;;;24.41;45.35
57056;BME280;42945;51.718;5.324;2022-08-21T14:43:09;101233.41;;;22.72;48.37
57056;BME280;42945;51.718;5.324;2022-08-21T14:48:58;101269.81;;;22.86;47.93
57056;BME280;42945;51.718;5.324;2022-08-21T14:54:45;101351.22;;;23.45;48.33
57056;BME280;42945;51.718;5.324;2022-08-21T15:00:33;75986.78;;;-145.00;40.29
57056;BME280;42945;51.718;5.324;2022-08-21T15:06:21;101412.28;;;22.68;49.72
57056;BME280;42945;51.718;5.324;2022-08-21T15:12:10;101324.63;;;22.70;49.18
57056;BME280;42945;51.718;5.324;2022-08-21T15:18:00;101407.69;;;22.78;50.26
57056;BME280;42945;51.718;5.324;2022-08-21T15:23:49;101190.28;;;21.17;52.90
57056;BME280;42945;51.718;5.324;2022-08-21T15:29:37;101401.25;;;22.79;53.02
57056;BME280;42945;51.718;5.324;2022-08-21T15:35:27;101380.03;;;23.28;51.39
57056;BME280;42945;51.718;5.324;2022-08-21T15:41:15;101359.31;;;22.75;49.93
57056;BME280;42945;51.718;5.324;2022-08-21T15:47:04;101496.69;;;23.43;52.31
57056;BME280;42945;51.718;5.324;2022-08-21T15:52:53;101413.84;;;23.24;51.01
57056;BME280;42945;51.718;5.324;2022-08-21T15:58:40;101254.03;;;22.99;47.59
57056;BME280;42945;51.718;5.324;2022-08-21T16:04:28;101365.97;;;23.51;47.63
57056;BME280;42945;51.718;5.324;2022-08-21T16:10:22;101307.19;;;22.65;47.59
57056;BME280;42945;51.718;5.324;2022-08-21T16:16:11;101273.63;;;22.03;50.32
57056;BME280;42945;51.718;5.324;2022-08-21T16:22:01;101509.50;;;22.41;51.39
57056;BME280;42945;51.718;5.324;2022-08-21T16:27:52;101349.81;;;22.53;0.00
57056;BME280;42945;51.718;5.324;2022-08-21T16:33:44;101249.66;;;22.18;51.59
57056;BME280;42945;51.718;5.324;2022-08-21T16:39:34;101369.31;;;23.00;51.04
57056;BME280;42945;51.718;5.324;2022-08-21T16:45:23;101423.63;;;22.35;51.22
57056;BME280;42945;51.718;5.324;2022-08-21T16:51:15;101403.41;;;22.02;53.63
57056;BME280;42945;51.718;5.324;2022-08-21T16:57:04;101731.81;;;21.95;52.59
57056;BME280;42945;51.718;5.324;2022-08-21T17:02:54;101250.59;;;20.79;52.90
57056;BME280;42945;51.718;5.324;2022-08-21T17:08:43;101399.53;;;21.10;54.02
57056;BME280;42945;51.718;5.324;2022-08-21T17:14:31;101736.25;;;21.15;54.34
57056;BME280;42945;51.718;5.324;2022-08-21T17:20:20;101276.53;;;20.31;54.09
57056;BME280;42945;51.718;5.324;2022-08-21T17:29:57;101164.06;;;19.45;56.05
57056;BME280;42945;51.718;5.324;2022-08-21T17:35:46;101392.44;;;20.80;57.47
57056;BME280;42945;51.718;5.324;2022-08-21T17:41:35;101383.09;;;20.64;57.59
57056;BME280;42945;51.718;5.324;2022-08-21T17:47:24;101262.06;;;19.93;57.21
57056;BME280;42945;51.718;5.324;2022-08-21T17:53:12;101257.66;;;19.82;58.00
57056;BME280;42945;51.718;5.324;2022-08-21T17:59:02;101379.88;;;20.20;55.34
57056;BME280;42945;51.718;5.324;2022-08-21T18:04:51;101382.13;;;20.15;55.28
57056;BME280;42945;51.718;5.324;2022-08-21T18:10:44;101384.09;;;20.03;54.82
57056;BME280;42945;51.718;5.324;2022-08-21T18:16:34;101228.81;;;19.23;56.91
57056;BME280;42945;51.718;5.324;2022-08-21T18:22:25;101264.44;;;19.15;57.28
57056;BME280;42945;51.718;5.324;2022-08-21T18:32:07;101369.72;;;19.62;58.99
57056;BME280;42945;51.718;5.324;2022-08-21T18:37:55;129104.91;;;187.26;60.32
57056;BME280;42945;51.718;5.324;2022-08-21T18:43:44;101380.06;;;19.36;59.49
57056;BME280;42945;51.718;5.324;2022-08-21T18:49:31;101381.31;;;19.32;59.68
57056;BME280;42945;51.718;5.324;2022-08-21T18:55:23;101368.41;;;19.26;60.36
57056;BME280;42945;51.718;5.324;2022-08-21T19:01:11;101398.50;;;19.20;61.66
57056;BME280;42945;51.718;5.324;2022-08-21T19:06:59;101289.81;;;18.59;61.97
57056;BME280;42945;51.718;5.324;2022-08-21T19:12:47;101360.84;;;18.99;61.10
57056;BME280;42945;51.718;5.324;2022-08-21T19:18:39;101418.63;;;19.04;61.98
57056;BME280;42945;51.718;5.324;2022-08-21T19:24:26;101398.66;;;18.86;63.08
57056;BME280;42945;51.718;5.324;2022-08-21T19:34:41;101390.47;;;18.76;63.76
57056;BME280;42945;51.718;5.324;2022-08-21T19:40:31;101399.47;;;18.54;65.42
57056;BME280;42945;51.718;5.324;2022-08-21T19:46:29;101401.78;;;18.59;66.12
57056;BME280;42945;51.718;5.324;2022-08-21T19:52:21;101423.91;;;18.51;66.46
57056;BME280;42945;51.718;5.324;2022-08-21T19:58:25;101417.56;;;18.52;67.58
57056;BME280;42945;51.718;5.324;2022-08-21T20:04:14;101459.69;;;18.40;68.79
57056;BME280;42945;51.718;5.324;2022-08-21T20:10:04;101550.88;;;18.87;69.14
57056;BME280;42945;51.718;5.324;2022-08-21T20:15:53;101392.00;;;18.14;69.80
57056;BME280;42945;51.718;5.324;2022-08-21T20:21:42;102272.91;;;23.22;71.57
57056;BME280;42945;51.718;5.324;2022-08-21T20:27:30;101751.16;;;17.98;71.92
57056;BME280;42945;51.718;5.324;2022-08-21T20:37:19;101392.06;;;17.34;77.20
57056;BME280;42945;51.718;5.324;2022-08-21T20:43:10;101446.53;;;17.34;79.19
57056;BME280;42945;51.718;5.324;2022-08-21T20:49:02;101409.00;;;17.34;79.36
57056;BME280;42945;51.718;5.324;2022-08-21T20:54:57;101447.72;;;17.19;80.10
57056;BME280;42945;51.718;5.324;2022-08-21T21:00:48;101194.00;;;15.90;79.98
57056;BME280;42945;51.718;5.324;2022-08-21T21:06:38;100973.56;;;16.49;80.55
57056;BME280;42945;51.718;5.324;2022-08-21T21:12:33;101364.69;;;16.95;80.53
57056;BME280;42945;51.718;5.324;2022-08-21T21:30:23;101378.84;;;17.08;78.18
57056;BME280;42945;51.718;5.324;2022-08-21T22:03:05;101455.00;;;16.68;81.49
57056;BME280;42945;51.718;5.324;2022-08-21T22:09:04;101407.03;;;16.65;82.32
57056;BME280;42945;51.718;5.324;2022-08-21T22:14:55;101315.13;;;15.80;82.97
57056;BME280;42945;51.718;5.324;2022-08-21T22:21:23;101453.97;;;16.58;82.10
57056;BME280;42945;51.718;5.324;2022-08-21T22:27:18;101410.22;;;16.46;81.26
57056;BME280;42945;51.718;5.324;2022-08-21T22:32:48;115697.84;;;100.53;88.92
57056;BME280;42945;51.718;5.324;2022-08-21T22:42:36;101422.59;;;16.23;85.50
57056;BME280;42945;51.718;5.324;2022-08-21T22:48:27;101398.03;;;16.29;83.09
57056;BME280;42945;51.718;5.324;2022-08-21T22:54:32;101466.06;;;16.14;84.34
57056;BME280;42945;51.718;5.324;2022-08-21T23:00:40;101377.66;;;16.16;83.84
57056;BME280;42945;51.718;5.324;2022-08-21T23:12:36;101377.66;;;16.16;84.39
57056;BME280;42945;51.718;5.324;2022-08-21T23:18:55;101404.31;;;16.17;84.22
57056;BME280;42945;51.718;5.324;2022-08-21T23:30:57;101384.69;;;16.17;84.65
57056;BME280;42945;51.718;5.324;2022-08-21T23:43:50;101319.31;;;15.58;86.14
57056;BME280;42945;51.718;5.324;2022-08-21T23:49:54;101395.22;;;16.07;85.23
